Time;durP1;ratioP1;P1;durP2;ratioP2;P2;SDS_P1;SDS_P2;PMS_P1;PMS_P2;Temp;Humidity;BMP_temperature;BMP_pressure;BME280_temperature;BME280_humidity;BME280_pressure;Samples;Min_cycle;Max_cycle;Signal;HPM_P1;HPM_P2
2021/03/14 00:00:44;;;;;;;1.37;0.87;;;;;;;0.27;83.95;94415.53;5106320;28;20287;-75
2021/03/14 00:03:11;;;;;;;1.10;1.07;;;;;;;0.26;84.13;94412.13;5103341;28;20682;-75
2021/03/14 00:05:40;;;;;;;1.50;1.23;;;;;;;0.18;84.27;94417.03;5095105;28;20290;-75
2021/03/14 00:08:07;;;;;;;1.67;1.00;;;;;;;0.13;84.24;94411.44;5112987;28;20566;-74
2021/03/14 00:10:33;;;;;;;1.07;0.50;;;;;;;0.09;84.44;94410.03;5092859;28;20548;-75
2021/03/14 00:12:58;;;;;;;1.10;0.40;;;;;;;0.17;84.70;94417.94;5093632;27;20205;-74
2021/03/14 00:15:24;;;;;;;0.20;0.20;;;;;;;0.11;84.44;94408.19;5087414;27;20175;-75
2021/03/14 00:17:50;;;;;;;0.20;0.20;;;;;;;0.09;84.60;94407.50;5122011;27;20183;-74
2021/03/14 00:20:16;;;;;;;0.20;0.20;;;;;;;0.10;84.73;94426.97;5093692;28;20183;-75
2021/03/14 00:22:41;;;;;;;1.00;0.77;;;;;;;0.02;84.96;94423.34;5100157;27;20202;-75
2021/03/14 00:25:08;;;;;;;0.70;0.50;;;;;;;0.06;84.75;94425.56;5123758;27;20542;-75
2021/03/14 00:27:34;;;;;;;1.23;0.80;;;;;;;0.03;84.96;94419.88;5114283;28;20695;-75
2021/03/14 00:30:00;;;;;;;0.70;0.60;;;;;;;0.02;84.75;94433.56;5114310;27;20175;-75
2021/03/14 00:32:25;;;;;;;1.00;0.70;;;;;;;0.06;84.87;94425.56;5132602;27;20230;-75
2021/03/14 00:34:51;;;;;;;0.27;0.27;;;;;;;0.15;84.65;94418.97;5113897;28;20617;-75
2021/03/14 00:37:16;;;;;;;0.60;0.60;;;;;;;0.06;84.88;94415.34;5113985;28;20261;-75
2021/03/14 00:39:41;;;;;;;0.30;0.30;;;;;;;0.04;84.68;94419.75;5105220;28;20623;-75
2021/03/14 00:42:07;;;;;;;0.50;0.30;;;;;;;0.07;84.54;94422.06;5101994;28;20735;-75
2021/03/14 00:44:32;;;;;;;0.30;0.30;;;;;;;0.09;84.32;94422.81;5093417;28;20203;-75
2021/03/14 00:46:58;;;;;;;0.20;0.20;;;;;;;0.16;83.80;94423.97;5111963;28;20686;-75
2021/03/14 00:49:23;;;;;;;0.30;0.30;;;;;;;0.12;83.80;94427.69;5093686;28;20205;-75
2021/03/14 00:51:51;;;;;;;2.67;0.40;;;;;;;0.09;83.61;94415.16;5093326;28;20203;-75
2021/03/14 00:54:16;;;;;;;0.50;0.30;;;;;;;0.13;84.20;94424.19;5093545;28;20196;-75
2021/03/14 00:56:42;;;;;;;0.60;0.50;;;;;;;0.14;83.90;94417.34;5092572;28;20216;-75
2021/03/14 00:59:07;;;;;;;0.40;0.30;;;;;;;0.10;84.18;94421.06;5078923;28;20283;-75
2021/03/14 01:01:33;;;;;;;0.67;0.40;;;;;;;0.18;84.03;94414.47;5097943;28;20225;-75
2021/03/14 01:03:58;;;;;;;0.60;0.53;;;;;;;0.21;84.21;94424.44;5096506;28;20645;-75
2021/03/14 01:06:24;;;;;;;1.53;0.50;;;;;;;0.20;83.68;94430.47;5118949;28;20206;-75
2021/03/14 01:08:50;;;;;;;0.30;0.30;;;;;;;0.22;84.27;94426.06;5093026;28;20203;-75
2021/03/14 01:11:15;;;;;;;1.03;0.60;;;;;;;0.13;84.13;94434.41;5084423;28;20253;-75
2021/03/14 01:13:41;;;;;;;0.60;0.50;;;;;;;0.13;84.70;94443.81;5092499;28;20259;-75
2021/03/14 01:16:06;;;;;;;0.33;0.30;;;;;;;0.15;84.47;94434.28;5119294;28;20208;-75
2021/03/14 01:18:31;;;;;;;0.60;0.50;;;;;;;0.24;84.11;94442.09;5101371;28;20167;-75
2021/03/14 01:20:57;;;;;;;0.63;0.50;;;;;;;0.20;84.34;94443.25;5093372;28;20225;-75
2021/03/14 01:23:22;;;;;;;0.53;0.50;;;;;;;0.12;84.21;94460.88;5093431;28;20175;-75
2021/03/14 01:25:48;;;;;;;1.80;0.50;;;;;;;0.21;84.11;94461.94;5111382;28;20667;-75
2021/03/14 01:28:13;;;;;;;0.60;0.60;;;;;;;0.15;84.43;94475.94;5111717;28;20217;-75
2021/03/14 01:30:38;;;;;;;0.83;0.63;;;;;;;0.11;84.05;94478.84;5095023;28;20245;-75
2021/03/14 01:33:03;;;;;;;1.63;0.80;;;;;;;0.10;84.17;94462.72;5080146;28;20183;-75
2021/03/14 01:35:29;;;;;;;1.53;0.77;;;;;;;0.11;83.90;94461.78;5119622;27;20186;-75
2021/03/14 01:37:54;;;;;;;3.23;1.07;;;;;;;0.14;84.14;94464.13;5100466;28;20280;-75
2021/03/14 01:40:20;;;;;;;0.93;0.90;;;;;;;0.09;84.03;94456.00;5096946;28;20519;-75
2021/03/14 01:42:45;;;;;;;1.40;0.87;;;;;;;0.11;84.09;94466.91;5096834;28;20549;-75
2021/03/14 01:45:12;;;;;;;2.20;1.00;;;;;;;0.08;84.52;94473.94;5096455;28;20199;-75
2021/03/14 01:47:39;;;;;;;3.13;1.03;;;;;;;0.10;84.11;94472.94;5096825;28;20174;-75
2021/03/14 01:50:10;;;;;;;5.13;1.37;;;;;;;0.09;83.95;94473.84;5096849;28;20164;-74
2021/03/14 01:52:36;;;;;;;2.90;1.23;;;;;;;0.05;84.50;94485.19;5101960;27;20613;-74
2021/03/14 01:55:04;;;;;;;1.87;1.57;;;;;;;0.02;84.69;94482.88;5098710;28;20179;-74
2021/03/14 01:57:29;;;;;;;3.40;1.40;;;;;;;-0.07;84.90;94476.69;5096290;28;20194;-75
2021/03/14 01:59:54;;;;;;;2.23;1.67;;;;;;;0.00;85.01;94482.19;5096641;28;20172;-74
2021/03/14 02:02:20;;;;;;;3.83;1.57;;;;;;;-0.01;85.02;94481.34;5114660;28;20188;-74
2021/03/14 02:04:46;;;;;;;2.20;1.73;;;;;;;0.04;84.89;94482.75;5096135;28;20188;-75
2021/03/14 02:07:13;;;;;;;4.63;1.83;;;;;;;0.10;85.09;94480.59;5096471;28;20634;-74
2021/03/14 02:09:38;;;;;;;3.37;2.00;;;;;;;0.12;84.86;94481.28;5096227;28;20176;-74
2021/03/14 02:12:05;;;;;;;3.60;1.87;;;;;;;0.11;85.10;94489.88;5096324;28;20699;-74
2021/03/14 02:14:31;;;;;;;4.03;2.07;;;;;;;0.08;85.22;94495.19;5095888;28;20183;-75
2021/03/14 02:16:57;;;;;;;3.73;2.50;;;;;;;0.19;84.81;94499.53;5096219;28;20175;-74
2021/03/14 02:19:31;;;;;;;2.40;2.10;;;;;;;0.17;85.01;94509.03;5103882;28;20237;-75
2021/03/14 02:21:58;;;;;;;3.73;2.43;;;;;;;0.17;84.78;94511.56;5096083;28;20295;-75
2021/03/14 02:24:26;;;;;;;4.27;2.20;;;;;;;0.22;85.11;94507.78;5095837;28;20195;-75
2021/03/14 02:27:02;;;;;;;4.90;2.20;;;;;;;0.13;85.07;94503.34;5113029;28;20211;-75
2021/03/14 02:29:28;;;;;;;2.93;1.90;;;;;;;0.12;84.70;94516.22;5096130;28;20177;-74
2021/03/14 02:31:55;;;;;;;3.67;1.90;;;;;;;0.16;85.22;94518.41;5095841;28;20200;-74
2021/03/14 02:34:24;;;;;;;3.10;2.03;;;;;;;0.10;85.35;94507.84;5095859;28;20174;-75
2021/03/14 02:36:51;;;;;;;3.20;2.00;;;;;;;0.11;85.17;94515.41;5095863;28;20647;-75
2021/03/14 02:39:20;;;;;;;3.47;2.33;;;;;;;0.09;85.18;94513.84;5095897;28;20266;-75
2021/03/14 02:41:47;;;;;;;3.73;2.20;;;;;;;0.08;85.57;94515.59;5095159;28;20563;-75
2021/03/14 02:44:13;;;;;;;2.03;1.83;;;;;;;0.03;85.12;94527.06;5078412;28;20589;-74
2021/03/14 02:46:40;;;;;;;2.27;1.63;;;;;;;0.03;85.28;94514.31;5095630;28;20691;-75
2021/03/14 02:49:06;;;;;;;1.63;1.30;;;;;;;0.05;85.33;94520.94;5095636;28;20181;-74
2021/03/14 02:51:32;;;;;;;2.90;1.40;;;;;;;0.06;84.95;94526.84;5095526;28;20556;-75
2021/03/14 02:53:58;;;;;;;1.23;1.13;;;;;;;0.01;84.84;94532.31;5078538;28;20182;-75
2021/03/14 02:56:24;;;;;;;1.87;1.20;;;;;;;0.05;85.12;94541.34;5095328;28;20176;-75
2021/03/14 02:58:53;;;;;;;1.70;1.10;;;;;;;0.06;84.74;94542.97;5095261;28;20662;-74
2021/03/14 03:01:19;;;;;;;1.10;1.00;;;;;;;0.01;84.58;94542.50;5078461;28;20227;-74
2021/03/14 03:03:44;;;;;;;1.70;1.40;;;;;;;-0.03;84.89;94543.63;5095344;28;20568;-74
2021/03/14 03:06:10;;;;;;;1.30;1.20;;;;;;;-0.02;84.98;94550.38;5094978;28;20755;-75
2021/03/14 03:08:37;;;;;;;2.93;1.33;;;;;;;-0.03;85.11;94553.84;5095328;28;20179;-75
2021/03/14 03:11:07;;;;;;;3.17;1.30;;;;;;;-0.08;85.26;94561.03;5078111;28;20203;-75
2021/03/14 03:13:37;;;;;;;2.43;1.30;;;;;;;-0.08;85.42;94569.50;5095111;28;20226;-75
2021/03/14 03:16:05;;;;;;;2.80;1.30;;;;;;;-0.05;85.56;94573.56;5094907;28;20201;-75
2021/03/14 03:18:30;;;;;;;2.07;1.00;;;;;;;0.00;85.30;94581.72;5094515;28;20209;-75
2021/03/14 03:20:56;;;;;;;2.37;1.30;;;;;;;-0.03;85.53;94574.25;5094995;28;20200;-74
2021/03/14 03:23:21;;;;;;;0.90;0.90;;;;;;;0.01;85.31;94591.00;5095065;28;20171;-75
2021/03/14 03:25:47;;;;;;;1.00;0.90;;;;;;;0.00;85.34;94597.03;5094409;28;20233;-75
2021/03/14 03:28:16;;;;;;;0.93;0.80;;;;;;;-0.01;85.31;94605.59;5111759;28;20657;-75
2021/03/14 03:30:43;;;;;;;2.33;0.87;;;;;;;0.09;85.29;94608.31;5094764;28;20202;-75
2021/03/14 03:33:09;;;;;;;2.13;1.23;;;;;;;0.08;85.30;94627.09;5077878;28;20179;-74
2021/03/14 03:35:34;;;;;;;4.97;1.53;;;;;;;0.05;84.86;94614.56;5094397;28;20186;-74
2021/03/14 03:38:00;;;;;;;2.17;1.50;;;;;;;0.02;84.79;94625.00;5094654;28;20255;-74
2021/03/14 03:40:27;;;;;;;3.37;1.50;;;;;;;-0.03;85.06;94615.91;5077528;28;20592;-75
2021/03/14 03:42:59;;;;;;;2.00;1.80;;;;;;;0.03;85.11;94613.88;5094679;28;20189;-74
2021/03/14 03:45:28;;;;;;;3.93;2.20;;;;;;;0.05;85.52;94623.03;5094310;28;20602;-74
2021/03/14 03:47:56;;;;;;;4.30;1.80;;;;;;;0.05;85.03;94617.94;5077633;28;20190;-75
2021/03/14 03:50:22;;;;;;;1.90;1.63;;;;;;;0.04;85.19;94631.63;5094422;28;20274;-75
2021/03/14 03:52:47;;;;;;;1.87;1.40;;;;;;;0.07;85.05;94639.06;5094368;28;20267;-74
2021/03/14 03:55:14;;;;;;;4.13;1.30;;;;;;;0.06;85.00;94642.53;5076587;28;20168;-74
2021/03/14 03:57:40;;;;;;;3.30;1.53;;;;;;;0.07;84.93;94635.69;5094348;28;20214;-74
2021/03/14 04:00:12;;;;;;;1.67;0.90;;;;;;;0.01;84.83;94639.50;5077461;28;20522;-75
2021/03/14 04:02:37;;;;;;;2.70;1.10;;;;;;;0.03;85.11;94650.41;5094167;28;20187;-74
2021/03/14 04:05:06;;;;;;;1.00;0.90;;;;;;;-0.02;84.69;94655.00;5110753;28;20248;-74
2021/03/14 04:07:34;;;;;;;1.67;0.90;;;;;;;-0.13;85.18;94662.59;5094177;28;20273;-74
2021/03/14 04:10:01;;;;;;;1.50;0.90;;;;;;;-0.15;85.05;94661.88;5077268;28;20229;-74
2021/03/14 04:12:26;;;;;;;1.33;0.60;;;;;;;-0.21;84.75;94659.75;5077013;28;20219;-74
2021/03/14 04:14:52;;;;;;;2.13;0.83;;;;;;;-0.16;84.73;94676.38;5076941;28;20661;-75
2021/03/14 04:17:17;;;;;;;2.30;0.60;;;;;;;-0.22;84.81;94673.44;5093417;28;20179;-75
2021/03/14 04:19:43;;;;;;;1.27;0.60;;;;;;;-0.23;84.60;94687.91;5094044;28;20175;-75
2021/03/14 04:22:09;;;;;;;1.67;0.67;;;;;;;-0.22;84.58;94699.75;5093985;28;20198;-74
2021/03/14 04:24:35;;;;;;;3.10;0.87;;;;;;;-0.17;84.34;94694.34;5093534;28;20625;-75
2021/03/14 04:27:02;;;;;;;2.43;1.60;;;;;;;-0.19;84.79;94698.72;5077046;28;20179;-75
2021/03/14 04:29:28;;;;;;;2.27;1.00;;;;;;;-0.25;85.21;94701.72;5093965;28;20232;-75
2021/03/14 04:31:54;;;;;;;1.43;1.10;;;;;;;-0.28;85.26;94708.63;5093671;28;20198;-75
2021/03/14 04:34:21;;;;;;;3.03;1.20;;;;;;;-0.20;85.30;94709.84;5093452;28;20202;-74
2021/03/14 04:36:47;;;;;;;4.20;1.10;;;;;;;-0.22;85.21;94721.91;5093887;28;20183;-74
2021/03/14 04:39:13;;;;;;;2.10;1.37;;;;;;;-0.22;84.66;94711.69;5093710;28;20171;-74
2021/03/14 04:41:41;;;;;;;1.53;1.17;;;;;;;-0.23;84.90;94722.84;5076876;28;20232;-74
2021/03/14 04:44:08;;;;;;;4.00;1.27;;;;;;;-0.19;84.35;94737.00;5093654;28;20212;-74
2021/03/14 04:46:34;;;;;;;2.50;1.10;;;;;;;-0.20;84.55;94735.38;5093380;28;20175;-74
2021/03/14 04:49:00;;;;;;;2.13;0.90;;;;;;;-0.29;84.68;94747.81;5093810;28;20555;-74
2021/03/14 04:51:28;;;;;;;1.67;1.10;;;;;;;-0.32;84.71;94742.94;5093603;28;20667;-74
2021/03/14 04:53:57;;;;;;;3.50;1.37;;;;;;;-0.31;85.07;94762.41;5093730;28;20193;-74
2021/03/14 04:56:25;;;;;;;1.77;1.30;;;;;;;-0.26;85.02;94756.22;5093417;28;20270;-74
2021/03/14 04:58:51;;;;;;;1.97;1.20;;;;;;;-0.20;84.73;94758.34;5076535;28;20190;-74
2021/03/14 05:01:18;;;;;;;2.27;1.43;;;;;;;-0.28;84.68;94759.66;5093520;28;20256;-74
2021/03/14 05:03:46;;;;;;;1.93;1.50;;;;;;;-0.21;84.83;94775.38;5093509;28;20172;-74
2021/03/14 05:06:15;;;;;;;3.20;1.57;;;;;;;-0.30;84.91;94776.81;5078952;28;20207;-75
2021/03/14 05:08:42;;;;;;;2.30;1.77;;;;;;;-0.26;85.10;94771.53;5097643;28;20244;-75
2021/03/14 05:11:08;;;;;;;5.60;2.20;;;;;;;-0.21;84.69;94774.56;5097349;28;20609;-75
2021/03/14 05:13:33;;;;;;;1.73;1.50;;;;;;;-0.17;84.49;94786.22;5080381;28;20179;-75
2021/03/14 05:15:59;;;;;;;3.97;1.97;;;;;;;-0.21;84.85;94774.56;5097175;28;20183;-74
2021/03/14 05:18:25;;;;;;;4.40;1.70;;;;;;;-0.22;84.71;94793.34;5097162;28;20204;-74
2021/03/14 05:20:50;;;;;;;5.53;2.13;;;;;;;-0.22;84.84;94788.25;5097235;28;20199;-75
2021/03/14 05:23:16;;;;;;;3.20;1.97;;;;;;;-0.18;84.38;94792.22;5115490;28;20186;-75
2021/03/14 05:25:42;;;;;;;4.13;2.17;;;;;;;-0.22;84.66;94794.16;5079878;28;20203;-75
2021/03/14 05:28:07;;;;;;;4.97;2.27;;;;;;;-0.14;84.75;94798.78;5097249;28;20655;-75
2021/03/14 05:30:37;;;;;;;4.13;1.93;;;;;;;-0.22;84.67;94795.91;5097289;28;20565;-74
2021/03/14 05:33:02;;;;;;;4.03;2.00;;;;;;;-0.19;84.41;94809.28;5097018;28;20262;-75
2021/03/14 05:35:29;;;;;;;4.97;2.10;;;;;;;-0.13;84.45;94808.06;5096829;28;20229;-75
2021/03/14 05:37:56;;;;;;;2.50;2.20;;;;;;;-0.17;84.76;94810.00;5096992;28;20262;-74
2021/03/14 05:40:24;;;;;;;3.57;1.97;;;;;;;-0.18;84.43;94821.09;5115298;28;20194;-74
2021/03/14 05:42:50;;;;;;;4.47;2.50;;;;;;;-0.14;84.45;94824.28;5097011;28;20178;-75
2021/03/14 05:45:16;;;;;;;5.73;2.37;;;;;;;-0.09;83.99;94824.78;5096533;28;20706;-75
2021/03/14 05:47:41;;;;;;;2.40;2.20;;;;;;;-0.10;84.07;94828.25;5096884;28;20631;-75
2021/03/14 05:50:10;;;;;;;5.00;2.33;;;;;;;-0.22;84.18;94834.19;5079764;28;20187;-75
2021/03/14 05:52:41;;;;;;;6.27;2.80;;;;;;;-0.13;83.47;94828.47;5096457;28;20241;-75
2021/03/14 05:55:09;;;;;;;3.10;2.33;;;;;;;-0.16;83.97;94833.78;5079446;28;20184;-75
2021/03/14 05:57:35;;;;;;;5.57;2.50;;;;;;;-0.18;83.58;94835.59;5096640;28;20209;-75
2021/03/14 06:00:00;;;;;;;6.53;2.30;;;;;;;-0.13;83.65;94838.69;5079558;28;20175;-74
2021/03/14 06:02:27;;;;;;;4.80;1.80;;;;;;;-0.17;83.33;94832.97;5096565;28;20252;-74
2021/03/14 06:04:53;;;;;;;5.43;2.07;;;;;;;-0.19;83.69;94834.78;5079267;28;20213;-75
2021/03/14 06:07:18;;;;;;;4.37;2.40;;;;;;;-0.15;83.51;94837.97;5096264;28;20187;-75
2021/03/14 06:09:44;;;;;;;5.63;1.93;;;;;;;-0.16;82.72;94837.16;5096489;28;20241;-74
2021/03/14 06:12:12;;;;;;;5.67;2.30;;;;;;;-0.17;82.89;94840.63;5114483;28;20215;-75
2021/03/14 06:14:38;;;;;;;4.23;1.83;;;;;;;-0.22;82.69;94834.19;5096037;28;20171;-75
2021/03/14 06:17:04;;;;;;;2.30;1.57;;;;;;;-0.19;81.73;94844.19;5113374;28;20227;-75
2021/03/14 06:19:30;;;;;;;5.43;2.20;;;;;;;-0.23;82.40;94852.97;5114191;28;20215;-75
2021/03/14 06:22:17;;;;;;;4.10;2.00;;;;;;;-0.23;81.99;94869.09;5096106;28;20203;-75
2021/03/14 06:24:43;;;;;;;5.27;1.80;;;;;;;-0.20;80.88;94860.41;5078961;28;20207;-76
2021/03/14 06:27:08;;;;;;;3.83;1.97;;;;;;;-0.15;80.96;94871.16;5096115;28;20187;-75
2021/03/14 06:29:33;;;;;;;5.37;2.00;;;;;;;-0.13;80.99;94882.06;5096002;28;20180;-74
2021/03/14 06:32:00;;;;;;;7.07;2.50;;;;;;;-0.06;80.34;94896.06;5113980;28;20569;-75
2021/03/14 06:34:32;;;;;;;4.50;2.20;;;;;;;-0.09;80.51;94901.34;5095565;28;20234;-75
2021/03/14 06:37:08;;;;;;;6.07;2.60;;;;;;;0.13;80.43;94906.72;5095056;28;20190;-74
2021/03/14 06:39:36;;;;;;;3.07;1.93;;;;;;;0.22;79.64;94911.22;5078057;28;20182;-76
2021/03/14 06:42:02;;;;;;;5.03;1.93;;;;;;;0.36;79.69;94917.16;5131684;27;20198;-74
2021/03/14 06:44:30;;;;;;;6.07;2.10;;;;;;;0.70;78.88;94923.38;5115851;27;20198;-75
2021/03/14 06:46:56;;;;;;;3.63;1.80;;;;;;;0.73;78.29;94925.75;5086564;28;20280;-75
2021/03/14 06:49:24;;;;;;;4.73;1.97;;;;;;;0.95;77.14;94938.69;5103703;28;20185;-74
2021/03/14 06:51:52;;;;;;;4.97;2.07;;;;;;;1.13;76.70;94940.00;5077252;28;20291;-75
2021/03/14 06:54:20;;;;;;;5.57;3.53;;;;;;;0.99;76.68;94949.56;5106641;27;20178;-75
2021/03/14 06:57:09;;;;;;;8.10;3.40;;;;;;;0.85;76.91;94940.25;5098410;27;20187;-74
2021/03/14 06:59:44;;;;;;;9.10;2.47;;;;;;;0.84;77.27;94949.66;5075286;28;20195;-74
2021/03/14 07:02:14;;;;;;;9.53;2.63;;;;;;;0.74;77.83;94952.94;5075086;28;20790;-75
2021/03/14 07:04:53;;;;;;;5.53;1.97;;;;;;;0.56;77.66;94960.91;5074519;28;20219;-74
2021/03/14 07:07:32;;;;;;;7.23;2.60;;;;;;;0.57;77.37;94970.19;5103343;28;20190;-75
2021/03/14 07:10:06;;;;;;;3.43;2.00;;;;;;;0.35;78.03;94967.41;5095500;28;20640;-74
2021/03/14 07:12:34;;;;;;;4.57;2.50;;;;;;;0.28;78.91;94966.19;5094944;28;20614;-75
2021/03/14 07:15:17;;;;;;;4.53;2.10;;;;;;;0.30;78.92;94979.69;5094859;28;20195;-76
2021/03/14 07:17:49;;;;;;;3.93;1.47;;;;;;;0.25;78.49;94974.03;5113403;28;20301;-75
2021/03/14 07:20:17;;;;;;;3.77;1.90;;;;;;;0.24;78.42;94980.88;5078144;28;20203;-75
2021/03/14 07:22:56;;;;;;;4.10;1.60;;;;;;;0.24;78.03;94980.88;5077951;28;20192;-75
2021/03/14 07:25:22;;;;;;;2.47;1.57;;;;;;;0.25;78.75;94977.41;5077615;28;20236;-75
2021/03/14 07:27:51;;;;;;;3.63;1.60;;;;;;;0.30;78.28;94989.06;5094532;28;20548;-75
2021/03/14 07:30:18;;;;;;;3.07;1.67;;;;;;;0.43;78.10;94990.72;5077821;28;20553;-75
2021/03/14 07:32:45;;;;;;;5.87;1.97;;;;;;;0.51;78.29;94997.88;5094600;28;20180;-75
2021/03/14 07:35:11;;;;;;;4.83;2.00;;;;;;;0.48;78.47;94998.91;5112596;28;20176;-75
2021/03/14 07:37:41;;;;;;;8.83;2.20;;;;;;;0.61;78.35;94998.91;5112667;28;20194;-76
2021/03/14 07:40:09;;;;;;;4.90;1.87;;;;;;;0.50;78.30;95006.47;5095250;28;20527;-75
2021/03/14 07:42:34;;;;;;;2.67;1.73;;;;;;;0.55;78.05;94996.78;5094487;28;20667;-75
2021/03/14 07:45:00;;;;;;;6.77;2.60;;;;;;;0.81;77.47;94995.88;5112618;28;20202;-75
2021/03/14 07:47:30;;;;;;;6.47;2.20;;;;;;;1.00;77.15;95002.31;5094664;28;20551;-75
2021/03/14 07:49:55;;;;;;;8.23;3.33;;;;;;;0.94;77.25;95007.84;5094246;27;20179;-75
2021/03/14 07:52:28;;;;;;;2.40;1.93;;;;;;;0.94;76.98;95008.66;5102431;28;20211;-75
2021/03/14 07:55:14;;;;;;;9.50;5.63;;;;;;;0.89;77.18;95013.28;5094207;28;20168;-75
2021/03/14 07:57:43;;;;;;;3.77;2.40;;;;;;;1.13;76.58;95023.56;5091015;28;20183;-75
2021/03/14 08:00:25;;;;;;;2.60;1.40;;;;;;;1.10;75.43;95018.69;5093540;28;20178;-75
2021/03/14 08:02:54;;;;;;;4.60;1.70;;;;;;;1.23;75.67;95016.91;5071190;28;20183;-75
2021/03/14 08:05:40;;;;;;;4.37;1.50;;;;;;;1.07;75.99;95017.16;5093084;28;20671;-75
2021/03/14 08:08:06;;;;;;;4.30;2.00;;;;;;;1.01;75.96;95024.41;5093612;28;20848;-75
2021/03/14 08:10:34;;;;;;;8.77;2.20;;;;;;;1.00;76.38;95021.03;5094330;28;20208;-76
2021/03/14 08:13:00;;;;;;;5.40;2.10;;;;;;;1.04;76.26;95039.53;5104287;28;20199;-75
2021/03/14 08:15:28;;;;;;;5.73;1.63;;;;;;;1.02;76.31;95038.81;5105558;27;20179;-77
2021/03/14 08:17:54;;;;;;;4.20;1.30;;;;;;;0.99;75.82;95034.75;5132275;27;20635;-78
2021/03/14 08:20:45;;;;;;;3.63;1.83;;;;;;;1.14;76.45;95032.88;5114252;27;20274;-77
2021/03/14 08:23:18;;;;;;;3.57;1.70;;;;;;;1.20;75.84;95050.38;5114255;27;20175;-76
2021/03/14 08:25:46;;;;;;;5.50;1.60;;;;;;;1.32;75.21;95049.53;5115026;27;20663;-77
2021/03/14 08:28:40;;;;;;;5.93;1.30;;;;;;;1.38;74.83;95044.00;5093672;28;20834;-76
2021/03/14 08:31:06;;;;;;;3.27;1.30;;;;;;;1.28;75.85;95043.00;5039371;28;20224;-77
2021/03/14 08:33:36;;;;;;;2.70;1.53;;;;;;;1.32;75.46;95049.53;5049826;28;20177;-77
2021/03/14 08:36:03;;;;;;;2.30;1.47;;;;;;;1.57;75.43;95060.66;5051766;28;20182;-76
2021/03/14 08:38:36;;;;;;;4.37;1.60;;;;;;;1.55;75.26;95057.41;5052151;28;20226;-77
2021/03/14 08:41:23;;;;;;;3.10;1.40;;;;;;;1.62;74.52;95066.31;5068290;28;20957;-77
2021/03/14 08:43:55;;;;;;;1.97;1.33;;;;;;;1.75;74.94;95069.66;5052424;28;20657;-76
2021/03/14 08:46:20;;;;;;;4.40;2.20;;;;;;;2.01;74.22;95080.63;5068874;28;20222;-77
2021/03/14 08:48:46;;;;;;;2.17;1.30;;;;;;;2.02;73.25;95086.56;5052080;28;20289;-77
2021/03/14 08:51:12;;;;;;;3.40;1.47;;;;;;;1.77;73.37;95087.44;5052149;28;20838;-76
2021/03/14 08:53:38;;;;;;;3.67;1.50;;;;;;;1.74;73.72;95096.16;5035270;28;20185;-76
2021/03/14 08:56:05;;;;;;;3.57;1.40;;;;;;;1.93;73.41;95088.03;5052043;28;20552;-77
2021/03/14 08:58:31;;;;;;;4.23;1.70;;;;;;;1.66;73.13;95096.69;5052038;28;20232;-77
2021/03/14 09:01:06;;;;;;;4.60;1.70;;;;;;;1.68;72.94;95094.06;5052021;28;20664;-76
2021/03/14 09:03:41;;;;;;;2.50;1.57;;;;;;;1.96;73.57;95086.09;5051468;28;20185;-76
2021/03/14 09:06:23;;;;;;;4.67;1.60;;;;;;;2.34;72.40;95092.81;5051538;28;20711;-76
2021/03/14 09:08:57;;;;;;;4.00;1.60;;;;;;;2.52;72.43;95104.31;5099825;28;20588;-77
2021/03/14 09:11:44;;;;;;;3.83;1.47;;;;;;;2.98;71.17;95095.06;5087662;28;20212;-77
2021/03/14 09:14:41;;;;;;;2.37;1.30;;;;;;;3.03;70.67;95098.94;5100384;28;20187;-76
2021/03/14 09:17:26;;;;;;;3.53;1.80;;;;;;;2.92;70.79;95096.34;5119335;28;20646;-76
2021/03/14 09:19:56;;;;;;;4.23;1.53;;;;;;;3.19;69.84;95090.09;5112729;28;20278;-76
2021/03/14 09:22:26;;;;;;;7.00;2.03;;;;;;;3.28;68.27;95091.97;5113683;28;20197;-76
2021/03/14 09:24:56;;;;;;;6.40;3.10;;;;;;;3.30;69.29;95102.94;5096462;28;20202;-75
2021/03/14 09:27:28;;;;;;;4.93;2.13;;;;;;;3.26;69.70;95104.09;5096761;28;20183;-76
2021/03/14 09:29:59;;;;;;;5.10;1.50;;;;;;;2.92;68.95;95109.16;5102790;28;20189;-75
2021/03/14 09:32:30;;;;;;;4.73;1.90;;;;;;;2.90;69.92;95117.88;5093326;28;20207;-76
2021/03/14 09:35:26;;;;;;;4.60;1.73;;;;;;;3.09;69.70;95119.00;5092963;28;20176;-76
2021/03/14 09:38:09;;;;;;;5.13;2.53;;;;;;;3.41;69.08;95118.34;5111199;28;20242;-76
2021/03/14 09:40:38;;;;;;;4.63;1.30;;;;;;;3.19;68.21;95114.00;5093249;28;20555;-76
2021/03/14 09:43:15;;;;;;;3.23;1.53;;;;;;;3.33;69.10;95115.53;5093325;28;20173;-76
2021/03/14 09:45:45;;;;;;;3.50;1.30;;;;;;;3.07;68.78;95114.91;5093005;28;20290;-75
2021/03/14 09:48:13;;;;;;;4.03;1.40;;;;;;;3.04;69.73;95123.66;5093032;28;20205;-75
2021/03/14 09:50:41;;;;;;;3.67;1.77;;;;;;;3.11;69.96;95132.53;5092842;28;20200;-76
2021/03/14 09:53:07;;;;;;;5.90;1.70;;;;;;;3.10;69.71;95143.72;5094430;28;20626;-76
2021/03/14 09:55:36;;;;;;;4.77;1.43;;;;;;;3.27;69.53;95132.22;5101327;28;20165;-76
2021/03/14 09:58:01;;;;;;;4.87;1.67;;;;;;;3.28;70.06;95138.19;5096383;28;20250;-76
2021/03/14 10:00:31;;;;;;;2.10;1.33;;;;;;;3.28;68.32;95136.44;5121616;27;20178;-76
2021/03/14 10:03:05;;;;;;;3.90;1.27;;;;;;;3.17;68.64;95133.00;5079347;28;20701;-76
2021/03/14 10:05:42;;;;;;;1.83;1.10;;;;;;;3.11;68.30;95137.66;5101133;28;20206;-76
2021/03/14 10:08:08;;;;;;;4.80;1.20;;;;;;;3.29;69.34;95135.50;5104421;28;20248;-76
2021/03/14 10:10:36;;;;;;;4.00;1.33;;;;;;;3.21;68.02;95134.41;5122194;27;20193;-77
2021/03/14 10:13:05;;;;;;;2.13;0.77;;;;;;;3.06;68.01;95137.16;5114242;27;20186;-76
2021/03/14 10:15:30;;;;;;;2.27;1.07;;;;;;;3.17;66.74;95133.00;5116436;27;20542;-76
2021/03/14 10:17:55;;;;;;;2.67;1.00;;;;;;;3.31;67.48;95131.06;5099597;27;20183;-76
2021/03/14 10:20:21;;;;;;;2.67;0.93;;;;;;;3.69;67.46;95141.03;5106754;27;20167;-76
2021/03/14 10:22:57;;;;;;;1.50;1.00;;;;;;;3.77;67.27;95142.19;5118898;27;20195;-77
2021/03/14 10:25:30;;;;;;;3.33;1.30;;;;;;;3.93;66.70;95134.97;5095609;28;20201;-76
2021/03/14 10:28:07;;;;;;;3.90;1.67;;;;;;;4.31;64.38;95144.03;5096084;28;20164;-76
2021/03/14 10:30:33;;;;;;;3.50;1.80;;;;;;;4.14;63.85;95137.63;5095739;28;20194;-76
2021/03/14 10:32:58;;;;;;;5.63;1.20;;;;;;;4.03;64.57;95132.50;5095843;28;20179;-77
2021/03/14 10:35:24;;;;;;;4.80;1.57;;;;;;;4.06;64.17;95135.66;5095758;28;20636;-76
2021/03/14 10:37:49;;;;;;;5.23;1.60;;;;;;;3.94;63.60;95123.75;5096041;28;20214;-76
2021/03/14 10:40:19;;;;;;;3.67;1.00;;;;;;;3.80;64.10;95136.81;5095688;28;20206;-77
2021/03/14 10:42:48;;;;;;;2.20;1.30;;;;;;;3.81;64.84;95131.59;5092854;28;20183;-76
2021/03/14 10:45:16;;;;;;;2.60;1.03;;;;;;;4.00;63.91;95123.28;5104296;27;20219;-76
2021/03/14 10:47:43;;;;;;;1.77;1.20;;;;;;;4.26;63.82;95116.13;5134182;27;20176;-77
2021/03/14 10:50:10;;;;;;;2.53;1.10;;;;;;;4.86;63.26;95122.50;5099956;28;20215;-77
2021/03/14 10:52:36;;;;;;;2.70;0.77;;;;;;;4.41;60.62;95121.81;5114929;27;20205;-76
2021/03/14 10:55:02;;;;;;;1.97;1.00;;;;;;;4.80;62.28;95117.84;5108774;27;20203;-77
2021/03/14 10:57:27;;;;;;;2.27;1.10;;;;;;;4.39;62.31;95121.13;5103714;28;20265;-76
2021/03/14 11:00:07;;;;;;;5.27;2.00;;;;;;;4.67;61.24;95123.13;5120853;27;20179;-76
2021/03/14 11:02:41;;;;;;;5.27;1.07;;;;;;;4.87;60.67;95133.63;5093282;27;20217;-77
2021/03/14 11:05:07;;;;;;;5.37;1.27;;;;;;;5.02;61.22;95125.47;5107731;27;20191;-77
2021/03/14 11:07:37;;;;;;;3.40;1.23;;;;;;;5.07;59.84;95128.50;5134097;27;20187;-77
2021/03/14 11:10:16;;;;;;;5.03;1.73;;;;;;;5.33;59.61;95123.78;5098468;27;20176;-77
2021/03/14 11:12:43;;;;;;;5.00;1.20;;;;;;;5.42;59.23;95129.13;5096281;27;20194;-77
2021/03/14 11:15:22;;;;;;;3.20;1.23;;;;;;;5.34;59.70;95128.00;5092857;28;20259;-77
2021/03/14 11:17:47;;;;;;;3.03;0.90;;;;;;;4.95;59.41;95126.09;5094995;28;20176;-76
2021/03/14 11:20:12;;;;;;;3.90;1.10;;;;;;;4.82;59.67;95136.53;5094812;28;20186;-77
2021/03/14 11:22:38;;;;;;;4.67;1.13;;;;;;;4.85;61.67;95151.72;5078187;28;20224;-78
2021/03/14 11:25:04;;;;;;;2.57;1.07;;;;;;;4.78;61.68;95148.84;5094489;28;20198;-77
2021/03/14 11:27:29;;;;;;;5.10;1.40;;;;;;;4.28;63.09;95157.13;5113242;28;20377;-77
2021/03/14 11:29:54;;;;;;;3.23;1.00;;;;;;;4.17;64.03;95156.22;5094838;28;20182;-77
2021/03/14 11:32:20;;;;;;;2.50;1.00;;;;;;;3.92;66.11;95159.84;5094764;28;20336;-77
2021/03/14 11:34:46;;;;;;;3.27;1.50;;;;;;;3.57;66.88;95154.78;5112713;28;20260;-77
2021/03/14 11:37:12;;;;;;;4.63;1.50;;;;;;;3.29;67.77;95157.78;5094628;28;20184;-77
2021/03/14 11:39:38;;;;;;;3.63;1.10;;;;;;;3.38;68.89;95154.53;5100621;27;20175;-77
2021/03/14 11:42:04;;;;;;;3.37;1.50;;;;;;;3.28;69.22;95158.72;5097993;27;20565;-77
2021/03/14 11:44:30;;;;;;;4.17;1.17;;;;;;;3.28;69.69;95153.56;5115087;27;20183;-77